Time;durP1;ratioP1;P1;durP2;ratioP2;P2;SDS_P1;SDS_P2;PMS_P1;PMS_P2;Temp;Humidity;BMP_temperature;BMP_pressure;BME280_temperature;BME280_humidity;BME280_pressure;Samples;Min_cycle;Max_cycle;Signal;HPM_P1;HPM_P2
2023/05/21 00:01:22;;;;;;;10.93;10.23;;;;;;;-145.94;56.86;76863.56;5113311;28;20674;-70
2023/05/21 00:03:49;;;;;;;11.20;10.50;;;;;;;-145.94;57.19;76863.56;5113245;28;20227;-70
2023/05/21 00:06:16;;;;;;;10.03;9.53;;;;;;;-145.94;57.08;76867.63;5113318;28;20185;-70
2023/05/21 00:08:42;;;;;;;10.93;10.17;;;;;;;-145.94;57.23;76871.72;5113184;28;20201;-70
2023/05/21 00:11:09;;;;;;;11.17;10.30;;;;;;;-145.94;57.26;76867.63;5113574;28;20545;-70
2023/05/21 00:13:35;;;;;;;10.80;10.07;;;;;;;-145.94;57.08;76871.72;5113255;28;20193;-71
2023/05/21 00:16:02;;;;;;;10.77;9.90;;;;;;;-145.94;57.26;76871.72;5113207;28;20200;-70
2023/05/21 00:18:31;;;;;;;10.97;10.07;;;;;;;-145.94;57.13;76873.75;5113107;28;20197;-70
2023/05/21 00:20:58;;;;;;;10.20;9.70;;;;;;;-145.94;57.23;76873.75;5113428;28;20193;-70
2023/05/21 00:23:25;;;;;;;10.43;9.63;;;;;;;-145.94;57.48;76871.72;5113341;28;20212;-70
2023/05/21 00:25:52;;;;;;;10.13;9.53;;;;;;;-145.94;57.42;76867.63;5113382;28;20264;-70
2023/05/21 00:28:18;;;;;;;10.13;9.53;;;;;;;-145.94;57.47;76871.72;5113289;28;20269;-70
2023/05/21 00:30:46;;;;;;;9.90;9.00;;;;;;;-145.94;57.43;76867.63;5114820;28;20189;-70
2023/05/21 00:33:12;;;;;;;10.23;9.63;;;;;;;-145.94;57.44;76869.66;5117022;28;20173;-70
2023/05/21 00:35:39;;;;;;;10.90;10.17;;;;;;;-145.94;57.63;76867.63;5116956;28;20187;-70
2023/05/21 00:38:07;;;;;;;9.40;9.03;;;;;;;-145.94;57.23;76873.75;5116592;28;20215;-70
2023/05/21 00:40:35;;;;;;;9.40;9.10;;;;;;;-145.94;57.51;76877.81;5117162;28;20643;-70
2023/05/21 00:43:01;;;;;;;11.43;10.53;;;;;;;-145.94;57.33;76877.81;5098481;28;20217;-70
2023/05/21 00:45:28;;;;;;;8.73;8.43;;;;;;;-145.94;57.34;76869.66;5116760;28;20276;-70
2023/05/21 00:47:55;;;;;;;10.77;9.97;;;;;;;-145.94;57.54;76871.72;5116402;28;20232;-70
2023/05/21 00:50:22;;;;;;;9.13;8.73;;;;;;;-145.94;57.43;76859.47;5116759;28;20583;-70
2023/05/21 00:52:49;;;;;;;9.70;9.30;;;;;;;-145.94;57.66;76867.63;5116910;28;20177;-70
2023/05/21 00:55:15;;;;;;;10.07;9.67;;;;;;;-145.94;57.47;76873.75;5116919;28;20548;-70
2023/05/21 00:57:44;;;;;;;8.87;8.47;;;;;;;-145.94;57.63;76869.66;5116565;28;20258;-70
2023/05/21 01:00:13;;;;;;;9.77;9.00;;;;;;;-145.94;57.61;76875.78;5097979;28;20193;-70
2023/05/21 01:02:40;;;;;;;9.33;9.03;;;;;;;-145.94;57.95;76873.75;5116157;28;20201;-70
2023/05/21 01:05:08;;;;;;;9.93;9.30;;;;;;;-145.94;57.88;76871.72;5116113;28;20272;-70
2023/05/21 01:07:37;;;;;;;10.83;10.13;;;;;;;-145.94;57.78;76873.75;5098583;28;20209;-70
2023/05/21 01:10:07;;;;;;;10.00;9.40;;;;;;;-145.94;57.57;76865.59;5097750;28;20252;-70
2023/05/21 01:12:34;;;;;;;11.73;10.77;;;;;;;-145.94;57.74;76867.63;5115984;28;20177;-70
2023/05/21 01:15:02;;;;;;;9.23;8.93;;;;;;;-145.94;58.03;76871.72;5097932;28;20193;-70
2023/05/21 01:17:30;;;;;;;10.17;9.47;;;;;;;-145.94;57.93;76867.63;5116154;28;20554;-70
2023/05/21 01:19:58;;;;;;;9.90;9.50;;;;;;;-145.94;57.96;76865.59;5115886;28;20207;-70
2023/05/21 01:22:27;;;;;;;9.77;9.20;;;;;;;-145.94;58.07;76865.59;5081053;28;20211;-70
2023/05/21 01:24:56;;;;;;;8.87;8.53;;;;;;;-145.94;58.14;76869.66;5097500;28;20177;-70
2023/05/21 01:27:22;;;;;;;9.27;8.83;;;;;;;-145.94;58.03;76867.63;5097242;28;20213;-70
2023/05/21 01:29:49;;;;;;;10.03;9.57;;;;;;;-145.94;57.94;76869.66;5116024;28;20188;-70
2023/05/21 01:32:40;;;;;;;9.30;8.87;;;;;;;-145.94;58.10;76873.75;5097668;28;20537;-70
2023/05/21 01:35:20;;;;;;;10.20;9.70;;;;;;;-145.94;57.93;76869.66;5116133;28;20173;-70
2023/05/21 01:37:54;;;;;;;9.73;9.30;;;;;;;-145.94;58.16;76875.78;5116114;28;20204;-70
2023/05/21 01:40:26;;;;;;;10.50;9.90;;;;;;;-145.94;58.05;76875.78;5116093;28;20238;-70
2023/05/21 01:42:53;;;;;;;9.73;9.40;;;;;;;-145.94;58.16;76871.72;5096494;28;20197;-70
2023/05/21 01:45:22;;;;;;;10.00;9.40;;;;;;;-145.94;58.38;76873.75;5097291;28;20197;-70
2023/05/21 01:47:52;;;;;;;10.10;9.70;;;;;;;-145.94;58.27;76875.78;5115333;28;20209;-69
2023/05/21 01:50:23;;;;;;;9.93;9.43;;;;;;;-145.94;58.40;76873.75;5080384;28;20192;-70
2023/05/21 01:52:57;;;;;;;10.60;10.07;;;;;;;-145.94;58.51;76883.94;5115829;28;20173;-70
2023/05/21 01:55:24;;;;;;;10.70;10.20;;;;;;;-145.94;58.63;76881.91;5115385;28;20226;-70
2023/05/21 01:57:52;;;;;;;10.93;10.10;;;;;;;-145.94;58.55;76879.88;5115333;28;20208;-70
2023/05/21 02:00:24;;;;;;;10.20;9.73;;;;;;;-145.94;58.67;76881.91;5097050;28;20185;-70
2023/05/21 02:02:50;;;;;;;10.60;10.07;;;;;;;-145.94;58.65;76881.91;5115575;28;20554;-70
2023/05/21 02:05:17;;;;;;;10.90;9.97;;;;;;;-145.94;58.49;76871.72;5114950;28;20603;-70
2023/05/21 02:07:44;;;;;;;9.77;9.37;;;;;;;-145.94;58.69;76873.75;5114873;28;20201;-70
2023/05/21 02:10:11;;;;;;;11.00;10.23;;;;;;;-145.94;58.60;76871.72;5096612;28;20663;-70
2023/05/21 02:12:38;;;;;;;9.77;9.37;;;;;;;-145.94;58.72;76873.75;5096597;28;20722;-70
2023/05/21 02:15:05;;;;;;;9.40;9.10;;;;;;;-145.94;58.83;76879.88;5114709;28;20181;-70
2023/05/21 02:17:32;;;;;;;10.57;9.67;;;;;;;-145.94;58.77;76867.63;5079690;28;20205;-70
2023/05/21 02:20:09;;;;;;;9.13;8.90;;;;;;;-145.94;58.85;76875.78;5096365;28;20189;-70
2023/05/21 02:22:46;;;;;;;9.37;8.97;;;;;;;-145.94;58.78;76879.88;5115169;28;20197;-70
2023/05/21 02:25:15;;;;;;;10.17;9.77;;;;;;;-145.94;58.96;76875.78;5115213;28;20185;-70
2023/05/21 02:27:42;;;;;;;10.00;9.60;;;;;;;-145.94;59.00;76875.78;5114347;28;20244;-70
2023/05/21 02:30:11;;;;;;;9.13;8.57;;;;;;;-145.94;58.78;76877.81;5096306;28;20185;-70
2023/05/21 02:32:41;;;;;;;9.80;9.40;;;;;;;-145.94;59.14;76877.81;5114459;28;20234;-70
2023/05/21 02:35:10;;;;;;;11.43;10.80;;;;;;;-145.94;59.19;76881.91;5114440;28;20230;-70
2023/05/21 02:37:39;;;;;;;9.87;9.40;;;;;;;-145.94;59.01;76885.97;5114589;28;20208;-70
2023/05/21 02:40:06;;;;;;;11.10;10.50;;;;;;;-145.94;59.02;76885.97;5114337;28;20546;-70
2023/05/21 02:42:33;;;;;;;11.57;9.67;;;;;;;-145.94;59.00;76879.88;5114806;28;20189;-70
2023/05/21 02:44:59;;;;;;;8.37;8.07;;;;;;;-145.94;59.44;76892.09;5096179;28;20192;-70
2023/05/21 02:47:26;;;;;;;10.33;9.90;;;;;;;-145.94;59.36;76894.13;5114194;28;20205;-70
2023/05/21 02:49:53;;;;;;;9.77;9.17;;;;;;;-145.94;59.30;76892.09;5095862;28;20724;-70
2023/05/21 02:52:21;;;;;;;9.17;8.87;;;;;;;-145.94;59.61;76890.06;5079091;28;20674;-70
2023/05/21 02:54:48;;;;;;;9.73;9.20;;;;;;;-145.94;59.66;76898.22;5095588;28;20289;-70
2023/05/21 02:57:14;;;;;;;11.00;10.47;;;;;;;-145.94;59.69;76900.25;5095760;28;20205;-70
2023/05/21 02:59:41;;;;;;;10.97;10.47;;;;;;;-145.94;59.57;76900.25;5113873;28;20185;-70
2023/05/21 03:02:07;;;;;;;10.40;9.60;;;;;;;-145.94;59.64;76896.19;5095942;28;20196;-70
2023/05/21 03:04:37;;;;;;;10.07;9.57;;;;;;;-145.94;59.53;76898.22;5095560;28;20251;-70
2023/05/21 03:07:04;;;;;;;10.07;9.60;;;;;;;-145.94;59.73;76898.22;5114142;28;20270;-70
2023/05/21 03:09:31;;;;;;;9.57;9.27;;;;;;;-145.94;59.52;76900.25;5095684;28;20281;-71
2023/05/21 03:11:58;;;;;;;10.30;9.83;;;;;;;-145.94;59.94;76906.38;5095980;28;20197;-70
2023/05/21 03:14:24;;;;;;;12.27;9.87;;;;;;;-145.94;59.73;76906.38;5095614;28;20185;-70
2023/05/21 03:16:50;;;;;;;9.97;9.40;;;;;;;-145.94;59.82;76906.38;5095537;28;20193;-70
2023/05/21 03:19:17;;;;;;;10.67;10.17;;;;;;;-145.94;59.81;76910.47;5095468;28;20742;-70
2023/05/21 03:21:44;;;;;;;10.20;9.70;;;;;;;-145.94;59.95;76910.47;5113740;28;20554;-70
2023/05/21 03:24:12;;;;;;;9.37;9.00;;;;;;;-145.94;59.83;76912.50;5113627;28;20205;-70
2023/05/21 03:26:39;;;;;;;10.53;9.93;;;;;;;-145.94;59.97;76918.63;5095351;28;20222;-70
2023/05/21 03:29:06;;;;;;;10.90;10.27;;;;;;;-145.94;60.21;76914.53;5095463;28;20193;-70
2023/05/21 03:31:34;;;;;;;10.00;9.47;;;;;;;-145.94;60.41;76916.56;5095577;28;20663;-70
2023/05/21 03:34:09;;;;;;;11.50;10.70;;;;;;;-145.94;60.36;76920.66;5095898;28;20188;-70
2023/05/21 03:36:35;;;;;;;9.93;9.53;;;;;;;-145.94;60.28;76918.63;5095364;28;20552;-70
2023/05/21 03:39:03;;;;;;;10.30;9.80;;;;;;;-145.94;60.47;76918.63;5095271;28;20714;-70
2023/05/21 03:41:32;;;;;;;11.30;10.50;;;;;;;-145.94;60.62;76922.69;5095308;28;20284;-70
2023/05/21 03:44:05;;;;;;;11.80;10.83;;;;;;;-145.94;60.55;76918.63;5095244;28;20227;-69
2023/05/21 03:46:44;;;;;;;9.00;8.40;;;;;;;-145.94;60.70;76924.72;5095510;28;20220;-69
2023/05/21 03:49:19;;;;;;;11.20;10.33;;;;;;;-145.94;60.75;76922.69;5095317;28;20230;-70
2023/05/21 03:51:48;;;;;;;9.97;9.47;;;;;;;-145.94;60.74;76922.69;5096010;28;20285;-70
2023/05/21 03:54:16;;;;;;;10.50;9.90;;;;;;;-145.94;60.79;76928.81;5095821;28;20235;-70
2023/05/21 03:56:43;;;;;;;9.70;9.20;;;;;;;-145.94;60.91;76924.72;5095036;28;20193;-70
2023/05/21 03:59:10;;;;;;;9.40;9.00;;;;;;;-145.94;60.78;76928.81;5095162;28;20220;-70
2023/05/21 04:01:37;;;;;;;10.87;10.30;;;;;;;-145.94;60.74;76928.81;5095117;28;20189;-70
2023/05/21 04:04:05;;;;;;;11.73;11.00;;;;;;;-145.94;61.05;76924.72;5095046;28;20201;-70
2023/05/21 04:06:32;;;;;;;11.17;10.63;;;;;;;-145.94;61.05;76928.81;5097608;28;20544;-70
2023/05/21 04:08:58;;;;;;;10.40;9.90;;;;;;;-145.94;60.82;76928.81;5098943;28;20217;-70
2023/05/21 04:11:25;;;;;;;12.00;10.87;;;;;;;-145.94;60.89;76936.97;5117211;28;20185;-70
2023/05/21 04:13:51;;;;;;;11.37;10.77;;;;;;;-145.94;60.92;76939.00;5117758;28;20534;-70
2023/05/21 04:16:18;;;;;;;10.80;9.97;;;;;;;-145.94;61.03;76930.84;5117402;28;20174;-69
2023/05/21 04:18:45;;;;;;;10.70;10.17;;;;;;;-145.94;61.20;76936.97;5116967;28;20233;-69
2023/05/21 04:21:14;;;;;;;11.73;10.53;;;;;;;-145.94;61.07;76936.97;5098775;28;20196;-69
2023/05/21 04:23:40;;;;;;;11.87;10.93;;;;;;;-145.94;61.29;76939.00;5116915;28;20284;-70
2023/05/21 04:26:15;;;;;;;11.97;11.20;;;;;;;-145.94;61.04;76934.94;5098970;28;20557;-70
2023/05/21 04:28:41;;;;;;;12.30;11.47;;;;;;;-145.94;61.22;76936.97;5098461;28;20585;-70
2023/05/21 04:31:08;;;;;;;9.40;9.10;;;;;;;-145.94;61.52;76941.03;5098579;28;20196;-70
2023/05/21 04:33:34;;;;;;;12.23;11.20;;;;;;;-145.94;61.20;76936.97;5116805;28;20175;-70
2023/05/21 04:36:02;;;;;;;11.30;10.70;;;;;;;-145.94;61.66;76936.97;5098528;28;20200;-69
2023/05/21 04:38:29;;;;;;;10.83;10.23;;;;;;;-145.94;61.70;76934.94;5098509;28;20209;-70
2023/05/21 04:40:57;;;;;;;11.33;10.63;;;;;;;-145.94;61.28;76928.81;5116706;28;20185;-70
2023/05/21 04:43:27;;;;;;;11.87;11.17;;;;;;;-145.94;61.53;76928.81;5116555;28;20209;-70
2023/05/21 04:45:58;;;;;;;10.93;10.43;;;;;;;-145.94;61.23;76930.84;5098322;28;20189;-70
2023/05/21 04:48:28;;;;;;;11.57;10.50;;;;;;;-145.94;61.56;76928.81;5098118;28;20342;-70
2023/05/21 04:50:55;;;;;;;12.07;11.03;;;;;;;-145.94;61.62;76941.03;5116737;28;20528;-69
2023/05/21 04:53:24;;;;;;;11.30;10.70;;;;;;;-145.94;61.52;76936.97;5098178;28;20189;-69
2023/05/21 04:55:51;;;;;;;10.90;10.17;;;;;;;-145.94;61.92;76928.81;5098343;28;20659;-70
2023/05/21 04:58:18;;;;;;;10.93;10.23;;;;;;;-145.94;61.61;76934.94;5098082;28;20295;-70
2023/05/21 05:00:45;;;;;;;11.47;10.73;;;;;;;-145.94;61.66;76928.81;5097932;28;20665;-70
2023/05/21 05:03:13;;;;;;;10.30;9.77;;;;;;;-145.94;61.65;76924.72;5097909;28;20189;-70
2023/05/21 05:05:42;;;;;;;10.47;9.87;;;;;;;-145.94;61.72;76922.69;5097936;28;20543;-70
2023/05/21 05:08:08;;;;;;;12.03;11.03;;;;;;;-145.94;61.93;76912.50;5097804;28;20255;-70
2023/05/21 05:10:35;;;;;;;11.70;10.63;;;;;;;-145.94;61.91;76912.50;5097745;28;20193;-69
2023/05/21 05:13:02;;;;;;;11.73;10.83;;;;;;;-145.94;61.70;76912.50;5097713;28;20678;-69
2023/05/21 05:15:28;;;;;;;11.60;10.90;;;;;;;-145.94;61.65;76906.38;5098019;28;20659;-69
2023/05/21 05:17:55;;;;;;;12.53;11.60;;;;;;;-145.94;61.89;76920.66;5098054;28;20213;-69
2023/05/21 05:20:22;;;;;;;12.23;11.07;;;;;;;-145.94;62.05;76912.50;5097555;28;20667;-69
2023/05/21 05:22:49;;;;;;;11.53;10.53;;;;;;;-145.94;61.95;76908.41;5097658;28;20582;-69
2023/05/21 05:25:16;;;;;;;11.73;11.13;;;;;;;-145.94;62.20;76906.38;5097547;28;20578;-69
2023/05/21 05:27:43;;;;;;;10.90;10.20;;;;;;;-145.94;62.32;76898.22;5097361;28;20227;-69
2023/05/21 05:30:10;;;;;;;12.20;11.20;;;;;;;-145.94;62.15;76896.19;5097360;28;20200;-69
2023/05/21 05:32:37;;;;;;;11.87;11.00;;;;;;;-145.94;62.13;76898.22;5097433;28;20189;-70
2023/05/21 05:35:04;;;;;;;11.43;10.53;;;;;;;-145.94;62.09;76894.13;5116169;28;20268;-70
2023/05/21 05:37:32;;;;;;;11.93;11.13;;;;;;;-145.94;61.95;76892.09;5097222;28;20649;-70
2023/05/21 05:39:59;;;;;;;12.50;11.70;;;;;;;-145.94;62.17;76881.91;5097213;28;20189;-70
2023/05/21 05:42:26;;;;;;;12.00;11.10;;;;;;;-145.94;62.15;76877.81;5097480;28;20193;-70
2023/05/21 05:44:52;;;;;;;12.57;11.60;;;;;;;-145.94;62.06;76877.81;5097079;28;20232;-70
2023/05/21 05:47:20;;;;;;;12.23;11.37;;;;;;;-145.94;62.10;76871.72;5097044;28;20215;-69
2023/05/21 05:49:47;;;;;;;12.10;11.30;;;;;;;-145.94;61.95;76867.63;5115929;28;20182;-70
2023/05/21 05:52:13;;;;;;;11.53;10.90;;;;;;;-145.94;61.89;76863.56;5097950;28;20199;-70
2023/05/21 05:54:40;;;;;;;11.87;11.07;;;;;;;-145.94;62.05;76857.44;5097827;28;20181;-70
2023/05/21 05:57:07;;;;;;;12.77;11.43;;;;;;;-145.94;61.94;76855.41;5097657;28;20742;-70
2023/05/21 05:59:34;;;;;;;12.47;11.43;;;;;;;-145.94;61.73;76843.16;5097694;28;20200;-70
2023/05/21 06:02:03;;;;;;;12.13;11.40;;;;;;;-145.94;62.06;76843.16;5098101;28;20223;-70
2023/05/21 06:04:30;;;;;;;13.20;12.23;;;;;;;-145.94;61.84;76845.19;5115887;28;20201;-70
2023/05/21 06:06:56;;;;;;;12.57;11.77;;;;;;;-145.94;61.94;76841.13;5097087;28;20193;-70
2023/05/21 06:09:23;;;;;;;12.73;11.93;;;;;;;-145.94;61.90;76835.00;5116473;28;20189;-69
2023/05/21 06:11:50;;;;;;;13.03;12.13;;;;;;;-145.94;61.50;76824.81;5116329;28;20186;-69
2023/05/21 06:14:16;;;;;;;12.57;11.67;;;;;;;-145.94;61.75;76826.84;5116773;28;20234;-69
2023/05/21 06:16:43;;;;;;;12.40;11.43;;;;;;;-145.94;61.89;76816.66;5098193;28;20193;-69
2023/05/21 06:19:09;;;;;;;14.27;13.13;;;;;;;-145.94;61.53;76812.56;5098015;28;20195;-69
2023/05/21 06:21:36;;;;;;;11.97;11.10;;;;;;;-145.94;61.68;76812.56;5098205;28;20626;-69
2023/05/21 06:24:04;;;;;;;13.43;12.33;;;;;;;-145.94;61.73;76810.53;5098270;28;20686;-69
2023/05/21 06:26:31;;;;;;;13.20;12.20;;;;;;;-145.94;61.88;76806.47;5099829;28;20200;-69
2023/05/21 06:28:58;;;;;;;12.53;11.40;;;;;;;-145.94;61.59;76802.38;5099462;28;20216;-69
2023/05/21 06:31:24;;;;;;;13.00;12.10;;;;;;;-145.94;61.77;76802.38;5098678;28;20197;-69
2023/05/21 06:33:52;;;;;;;14.17;13.10;;;;;;;-145.94;61.79;76812.56;5099039;28;20253;-69
2023/05/21 06:36:19;;;;;;;13.73;12.47;;;;;;;-145.94;61.79;76806.47;5098133;28;20186;-69
2023/05/21 06:38:46;;;;;;;12.73;12.00;;;;;;;-145.94;61.62;76808.50;5097760;28;20254;-70
2023/05/21 06:41:13;;;;;;;13.53;12.67;;;;;;;-145.94;61.42;76798.31;5098854;28;20222;-70
2023/05/21 06:43:52;;;;;;;12.97;11.87;;;;;;;-145.94;61.55;76800.34;5098811;28;20212;-69
2023/05/21 06:46:37;;;;;;;12.93;11.97;;;;;;;-145.94;61.42;76784.03;5115653;28;20268;-70
2023/05/21 06:49:06;;;;;;;13.20;12.23;;;;;;;-145.94;61.59;76773.81;5097762;28;20217;-70
2023/05/21 06:51:33;;;;;;;13.50;12.40;;;;;;;-145.94;61.63;76769.75;5097996;28;20189;-70
2023/05/21 06:54:01;;;;;;;12.93;12.03;;;;;;;-145.94;61.71;76767.72;5098159;28;20195;-70
2023/05/21 06:56:28;;;;;;;13.17;12.33;;;;;;;-145.94;61.26;76755.47;5098729;28;20238;-70
2023/05/21 06:58:54;;;;;;;13.50;12.37;;;;;;;-145.94;61.40;76751.41;5116808;28;20208;-70
2023/05/21 07:01:22;;;;;;;14.03;12.87;;;;;;;-145.94;61.30;76739.16;5095895;28;20182;-70
2023/05/21 07:03:48;;;;;;;17.67;12.80;;;;;;;-145.94;61.15;76733.03;5095962;28;20204;-69
2023/05/21 07:06:15;;;;;;;14.67;13.43;;;;;;;-145.94;61.60;76724.88;5095770;28;20201;-69
2023/05/21 07:08:42;;;;;;;14.73;13.73;;;;;;;-145.94;61.27;76706.53;5095599;28;20262;-69
2023/05/21 07:11:08;;;;;;;16.10;14.70;;;;;;;-145.94;60.69;76696.34;5095702;28;20565;-69
2023/05/21 07:13:36;;;;;;;15.40;14.27;;;;;;;-145.94;60.98;76684.09;5095651;28;20716;-70
2023/05/21 07:16:02;;;;;;;14.13;13.23;;;;;;;-145.94;60.58;76667.78;5095666;28;20203;-70
2023/05/21 07:18:30;;;;;;;16.03;13.90;;;;;;;-145.94;60.67;76667.78;5095502;28;20236;-70
2023/05/21 07:20:56;;;;;;;17.93;14.80;;;;;;;-145.94;60.08;76675.94;5113704;28;20596;-70
2023/05/21 07:23:23;;;;;;;14.33;13.23;;;;;;;-145.94;59.67;76661.69;5096370;28;20181;-69
2023/05/21 07:25:50;;;;;;;15.27;14.07;;;;;;;-145.94;59.83;76653.53;5095675;28;20258;-70
2023/05/21 07:28:17;;;;;;;15.47;13.87;;;;;;;-145.94;59.81;76659.63;5095362;28;20258;-70
2023/05/21 07:30:44;;;;;;;14.67;13.57;;;;;;;-145.94;59.90;76645.38;5113707;28;20193;-70
2023/05/21 07:33:15;;;;;;;13.83;12.83;;;;;;;-145.94;59.90;76635.16;5095927;28;20185;-69
2023/05/21 07:35:41;;;;;;;14.17;12.83;;;;;;;-145.94;59.64;76614.78;5095642;28;20185;-69
2023/05/21 07:38:08;;;;;;;15.67;14.23;;;;;;;-145.94;60.11;76596.44;5095527;28;20300;-69
2023/05/21 07:40:34;;;;;;;13.67;12.77;;;;;;;-145.94;60.02;76574.00;5096358;28;20199;-70
2023/05/21 07:43:02;;;;;;;14.73;13.30;;;;;;;-145.94;59.25;76561.75;5099548;28;20263;-70
2023/05/21 07:45:29;;;;;;;15.13;14.00;;;;;;;-145.94;59.06;76549.53;5099415;28;20258;-70
2023/05/21 07:47:56;;;;;;;14.70;13.50;;;;;;;-145.94;58.44;76537.28;5099255;28;20713;-70
2023/05/21 07:50:24;;;;;;;15.40;13.83;;;;;;;-145.94;58.60;76537.28;5100597;28;20616;-70
2023/05/21 07:52:51;;;;;;;15.80;14.40;;;;;;;-145.94;58.63;76529.13;5100254;28;20276;-70
2023/05/21 07:55:18;;;;;;;14.30;13.27;;;;;;;-145.94;57.83;76516.91;5099555;28;20714;-70
2023/05/21 07:57:45;;;;;;;15.00;13.53;;;;;;;-145.94;58.01;76510.78;5099130;28;20265;-70
2023/05/21 08:00:15;;;;;;;14.77;13.47;;;;;;;-145.94;58.12;76496.50;5099226;28;20185;-70
2023/05/21 08:02:45;;;;;;;13.67;12.67;;;;;;;-145.94;58.58;76480.19;5099163;28;20192;-70
2023/05/21 08:05:15;;;;;;;17.60;14.47;;;;;;;-145.94;58.18;76472.03;5099925;28;20254;-70
2023/05/21 08:07:42;;;;;;;14.83;13.47;;;;;;;-145.94;58.05;76457.78;5098986;28;20213;-69
2023/05/21 08:10:08;;;;;;;15.17;13.97;;;;;;;-145.94;57.57;76467.97;5117510;28;20238;-70
2023/05/21 08:12:35;;;;;;;14.87;13.57;;;;;;;-145.94;56.85;76457.78;5099232;28;20284;-71
2023/05/21 08:15:03;;;;;;;13.77;12.73;;;;;;;-145.94;56.56;76455.72;5099460;28;20213;-71
2023/05/21 08:17:31;;;;;;;13.93;13.03;;;;;;;-145.94;56.95;76445.53;5098851;28;20213;-70
2023/05/21 08:19:58;;;;;;;16.30;15.00;;;;;;;-145.94;56.92;76449.63;5098888;28;20189;-70
2023/05/21 08:22:26;;;;;;;13.43;12.40;;;;;;;-145.94;56.53;76449.63;5099641;28;20297;-70
2023/05/21 08:24:53;;;;;;;15.13;13.93;;;;;;;-145.94;56.51;76445.53;5098937;28;20213;-70
2023/05/21 08:27:20;;;;;;;14.80;13.77;;;;;;;-145.94;57.10;76441.47;5116806;28;20217;-70
2023/05/21 08:29:46;;;;;;;16.47;15.07;;;;;;;-145.94;56.49;76443.50;5117151;28;20180;-70
2023/05/21 08:32:12;;;;;;;16.37;13.83;;;;;;;-145.94;56.21;76451.66;5117112;28;20669;-71
2023/05/21 08:34:39;;;;;;;15.83;14.40;;;;;;;-145.94;56.53;76457.78;5116839;28;20588;-70
2023/05/21 08:37:20;;;;;;;15.10;13.80;;;;;;;-145.94;56.57;76453.69;5098460;28;20217;-70
2023/05/21 08:40:05;;;;;;;15.10;13.90;;;;;;;-145.94;57.63;76431.28;5098459;28;20189;-70
2023/05/21 08:42:44;;;;;;;14.40;13.20;;;;;;;-145.94;57.06;76419.03;5098608;28;20651;-70
2023/05/21 08:45:21;;;;;;;13.87;12.93;;;;;;;-145.94;56.82;76419.03;5099218;28;20205;-70
2023/05/21 08:47:58;;;;;;;15.00;13.97;;;;;;;-145.94;56.51;76414.94;5098173;28;20209;-70
2023/05/21 08:50:30;;;;;;;16.50;15.10;;;;;;;-145.94;56.71;76394.56;5082107;28;20706;-70
2023/05/21 08:53:00;;;;;;;14.97;13.80;;;;;;;-145.94;56.67;76388.44;5081773;28;20189;-70
2023/05/21 08:55:37;;;;;;;14.47;13.00;;;;;;;-145.94;56.70;76382.34;5116399;28;20183;-70
2023/05/21 08:58:04;;;;;;;16.53;15.13;;;;;;;-145.94;55.60;76359.91;5098424;28;20248;-70
2023/05/21 09:00:31;;;;;;;14.73;13.70;;;;;;;-145.94;55.48;76361.94;5098055;28;20188;-70
2023/05/21 09:03:00;;;;;;;18.70;16.67;;;;;;;-145.94;55.85;76363.97;5097954;28;20299;-70
2023/05/21 09:05:31;;;;;;;16.90;15.10;;;;;;;-145.94;55.56;76347.66;5097942;28;20565;-70
2023/05/21 09:08:05;;;;;;;18.43;16.50;;;;;;;-145.94;54.70;76341.56;5098106;28;20296;-70
2023/05/21 09:10:51;;;;;;;16.47;15.07;;;;;;;-145.94;54.74;76331.34;5098434;28;20284;-70
2023/05/21 09:13:23;;;;;;;17.03;15.43;;;;;;;-145.94;54.65;76321.16;5097852;28;20188;-70
2023/05/21 09:15:50;;;;;;;15.37;13.87;;;;;;;-145.94;54.38;76310.97;5097928;28;20193;-70
2023/05/21 09:18:18;;;;;;;31.03;15.77;;;;;;;-145.94;54.68;76300.78;5097548;28;20694;-70
2023/05/21 09:20:52;;;;;;;15.73;14.27;;;;;;;-145.94;54.11;76302.81;5097978;28;20193;-70
2023/05/21 09:23:19;;;;;;;17.23;15.77;;;;;;;-145.94;54.84;76288.53;5097614;28;20220;-70
2023/05/21 09:25:47;;;;;;;16.33;14.73;;;;;;;-145.94;55.53;76290.59;5097575;28;20205;-70
2023/05/21 09:28:22;;;;;;;16.77;15.43;;;;;;;-145.94;54.56;76280.38;5097316;28;20221;-71
2023/05/21 09:30:52;;;;;;;18.00;16.13;;;;;;;-145.94;54.01;76280.38;5097460;28;20189;-70
2023/05/21 09:33:28;;;;;;;17.03;15.20;;;;;;;-145.94;54.19;76268.16;5097449;28;20209;-70
2023/05/21 09:35:55;;;;;;;17.53;16.00;;;;;;;-145.94;54.07;76268.16;5116204;28;20261;-71
2023/05/21 09:38:24;;;;;;;17.07;15.20;;;;;;;-145.94;54.46;76260.00;5097253;28;20687;-70
2023/05/21 09:40:54;;;;;;;17.37;15.63;;;;;;;-145.94;54.93;76229.41;5097226;28;20182;-70
2023/05/21 09:43:21;;;;;;;24.87;17.50;;;;;;;-145.94;54.16;76217.19;5097279;28;20181;-70
2023/05/21 09:45:52;;;;;;;18.77;15.23;;;;;;;-145.94;53.81;76198.81;5115321;28;20616;-70
2023/05/21 09:48:35;;;;;;;17.27;15.33;;;;;;;-145.94;53.07;76184.56;5097058;28;20220;-71
2023/05/21 09:51:06;;;;;;;15.87;14.47;;;;;;;-145.94;53.08;76158.06;5097049;28;20185;-70
2023/05/21 09:53:33;;;;;;;16.40;13.90;;;;;;;-145.94;53.34;76162.13;5115509;28;20193;-70
2023/05/21 09:55:59;;;;;;;15.87;14.57;;;;;;;-145.94;53.21;76149.91;5115472;28;20177;-70
2023/05/21 09:58:26;;;;;;;18.00;16.40;;;;;;;-145.94;51.99;76145.81;5115635;28;20296;-71
2023/05/21 10:00:53;;;;;;;16.30;14.80;;;;;;;-145.94;52.83;76143.78;5115132;28;20711;-70
2023/05/21 10:03:22;;;;;;;16.57;14.77;;;;;;;-145.94;53.93;76125.44;5114116;28;20192;-71
2023/05/21 10:05:52;;;;;;;21.53;17.13;;;;;;;-145.94;52.49;76125.44;5114824;28;20205;-71
2023/05/21 10:08:21;;;;;;;20.23;16.17;;;;;;;-145.94;52.59;76135.63;5115536;28;20209;-70
2023/05/21 10:10:48;;;;;;;16.10;14.57;;;;;;;-145.94;52.44;76113.19;5115297;28;20561;-70
2023/05/21 10:13:17;;;;;;;16.23;14.70;;;;;;;-145.94;52.78;76096.88;5114927;28;20181;-70
2023/05/21 10:15:47;;;;;;;17.33;15.80;;;;;;;-145.94;52.30;76105.03;5097154;28;20177;-70
2023/05/21 10:18:17;;;;;;;15.37;14.23;;;;;;;-145.94;51.84;76090.78;5114772;28;20262;-70
2023/05/21 10:20:45;;;;;;;14.97;13.53;;;;;;;-145.94;51.66;76080.56;5115069;28;20181;-70
2023/05/21 10:23:11;;;;;;;18.20;13.93;;;;;;;-145.94;52.06;76070.38;5114997;28;20588;-70
2023/05/21 10:25:38;;;;;;;15.90;14.33;;;;;;;-145.94;52.90;76039.81;5114535;28;20209;-70
2023/05/21 10:28:05;;;;;;;28.87;14.47;;;;;;;-145.94;52.34;76029.59;5114404;28;20216;-71
2023/05/21 10:30:33;;;;;;;16.37;14.73;;;;;;;-145.94;51.62;76025.53;5115047;28;20189;-71
2023/05/21 10:33:01;;;;;;;15.60;14.40;;;;;;;-145.94;51.93;76017.38;5114776;28;20232;-70
2023/05/21 10:35:28;;;;;;;16.40;15.00;;;;;;;-145.94;51.08;76013.28;5114469;28;20213;-70
2023/05/21 10:37:57;;;;;;;17.13;15.53;;;;;;;-145.94;51.02;76007.19;5114511;28;20258;-70
2023/05/21 10:40:23;;;;;;;15.37;13.93;;;;;;;-145.94;51.29;76007.19;5114575;28;20238;-71
2023/05/21 10:43:27;;;;;;;14.27;13.07;;;;;;;-145.94;51.71;75990.88;5114641;28;20586;-71
2023/05/21 10:46:13;;;;;;;15.73;14.43;;;;;;;-145.94;52.04;75990.88;5114366;28;20201;-70
2023/05/21 10:49:10;;;;;;;14.80;13.70;;;;;;;-145.94;51.50;75986.78;5114403;28;20205;-70
2023/05/21 10:52:17;;;;;;;15.97;14.67;;;;;;;-145.94;51.64;75990.88;5114467;28;20161;-70
2023/05/21 10:54:58;;;;;;;16.17;13.53;;;;;;;-145.94;51.91;75976.59;5114382;28;20234;-70
2023/05/21 10:57:46;;;;;;;15.27;13.80;;;;;;;-145.94;51.42;75958.25;5114460;28;20270;-71
2023/05/21 11:00:16;;;;;;;15.87;14.27;;;;;;;-145.94;51.50;75956.22;5114633;28;20178;-71
2023/05/21 11:02:44;;;;;;;16.10;14.50;;;;;;;-145.94;51.14;75956.22;5114148;28;20177;-71
2023/05/21 11:05:11;;;;;;;15.00;13.50;;;;;;;-145.94;50.92;75933.78;5114177;28;20244;-70
2023/05/21 11:07:57;;;;;;;15.67;14.30;;;;;;;-145.94;51.44;75929.72;5114134;28;20205;-70
2023/05/21 11:10:39;;;;;;;16.97;15.37;;;;;;;-145.94;51.01;75911.38;5113940;28;20230;-70
2023/05/21 11:13:06;;;;;;;16.20;14.63;;;;;;;-145.94;50.88;75917.47;5113843;28;20189;-71